sensor_id;sensor_type;location;lat;lon;timestamp;temperature;humidity
24162;DHT22;12318;51.262;7.066;2023-01-19T00:01:27;1.40;99.90
24162;DHT22;12318;51.262;7.066;2023-01-19T00:03:52;1.40;99.90
24162;DHT22;12318;51.262;7.066;2023-01-19T00:06:18;1.50;99.90
24162;DHT22;12318;51.262;7.066;2023-01-19T00:08:44;1.40;99.90
24162;DHT22;12318;51.262;7.066;2023-01-19T00:11:11;1.40;99.90
24162;DHT22;12318;51.262;7.066;2023-01-19T00:13:38;1.50;99.90
24162;DHT22;12318;51.262;7.066;2023-01-19T00:16:04;1.60;99.90
24162;DHT22;12318;51.262;7.066;2023-01-19T00:18:30;1.50;99.90
24162;DHT22;12318;51.262;7.066;2023-01-19T00:20:57;1.50;99.90
24162;DHT22;12318;51.262;7.066;2023-01-19T00:23:24;1.50;99.90
24162;DHT22;12318;51.262;7.066;2023-01-19T00:25:50;1.50;99.90
24162;DHT22;12318;51.262;7.066;2023-01-19T00:28:17;1.50;99.90
24162;DHT22;12318;51.262;7.066;2023-01-19T00:30:50;1.50;99.90
24162;DHT22;12318;51.262;7.066;2023-01-19T00:33:16;1.50;99.90
24162;DHT22;12318;51.262;7.066;2023-01-19T00:35:42;1.60;99.90
24162;DHT22;12318;51.262;7.066;2023-01-19T00:38:09;1.50;99.90
24162;DHT22;12318;51.262;7.066;2023-01-19T00:40:47;1.50;99.90
24162;DHT22;12318;51.262;7.066;2023-01-19T00:43:12;1.50;99.90
24162;DHT22;12318;51.262;7.066;2023-01-19T00:45:38;1.50;99.90
24162;DHT22;12318;51.262;7.066;2023-01-19T00:48:04;1.60;99.90
24162;DHT22;12318;51.262;7.066;2023-01-19T00:50:31;1.70;99.90
24162;DHT22;12318;51.262;7.066;2023-01-19T00:52:58;1.70;99.90
24162;DHT22;12318;51.262;7.066;2023-01-19T00:55:26;1.60;99.90
24162;DHT22;12318;51.262;7.066;2023-01-19T00:57:53;1.70;99.90
24162;DHT22;12318;51.262;7.066;2023-01-19T01:00:19;1.60;99.90
24162;DHT22;12318;51.262;7.066;2023-01-19T01:02:59;1.60;99.90
24162;DHT22;12318;51.262;7.066;2023-01-19T01:05:24;1.60;99.90
24162;DHT22;12318;51.262;7.066;2023-01-19T01:07:50;1.60;99.90
24162;DHT22;12318;51.262;7.066;2023-01-19T01:10:19;1.60;99.90
24162;DHT22;12318;51.262;7.066;2023-01-19T01:12:58;1.60;99.90
24162;DHT22;12318;51.262;7.066;2023-01-19T01:15:25;1.60;99.90
24162;DHT22;12318;51.262;7.066;2023-01-19T01:17:52;1.60;99.90
24162;DHT22;12318;51.262;7.066;2023-01-19T01:20:21;1.60;99.90
24162;DHT22;12318;51.262;7.066;2023-01-19T01:22:51;1.60;99.90
24162;DHT22;12318;51.262;7.066;2023-01-19T01:25:19;1.70;99.90
24162;DHT22;12318;51.262;7.066;2023-01-19T01:27:47;1.60;99.90
24162;DHT22;12318;51.262;7.066;2023-01-19T01:30:13;1.60;99.90
24162;DHT22;12318;51.262;7.066;2023-01-19T01:32:59;1.70;99.90
24162;DHT22;12318;51.262;7.066;2023-01-19T01:35:24;1.70;99.90
24162;DHT22;12318;51.262;7.066;2023-01-19T01:37:50;1.60;99.90
24162;DHT22;12318;51.262;7.066;2023-01-19T01:40:17;1.70;99.90
24162;DHT22;12318;51.262;7.066;2023-01-19T01:43:01;1.80;99.90
24162;DHT22;12318;51.262;7.066;2023-01-19T01:45:29;1.80;99.90
24162;DHT22;12318;51.262;7.066;2023-01-19T01:50:36;1.70;99.90
24162;DHT22;12318;51.262;7.066;2023-01-19T01:53:06;1.70;99.90
24162;DHT22;12318;51.262;7.066;2023-01-19T01:55:40;1.70;99.90
24162;DHT22;12318;51.262;7.066;2023-01-19T01:58:08;1.70;99.90
24162;DHT22;12318;51.262;7.066;2023-01-19T02:03:57;1.70;99.90
24162;DHT22;12318;51.262;7.066;2023-01-19T02:06:23;1.80;99.90
24162;DHT22;12318;51.262;7.066;2023-01-19T02:09:05;1.90;99.90
24162;DHT22;12318;51.262;7.066;2023-01-19T02:11:52;1.80;99.90
24162;DHT22;12318;51.262;7.066;2023-01-19T02:14:37;1.80;99.90
24162;DHT22;12318;51.262;7.066;2023-01-19T02:17:03;1.80;99.90
24162;DHT22;12318;51.262;7.066;2023-01-19T02:19:33;1.70;99.90
24162;DHT22;12318;51.262;7.066;2023-01-19T02:22:25;1.70;99.90
24162;DHT22;12318;51.262;7.066;2023-01-19T02:24:54;1.70;99.90
24162;DHT22;12318;51.262;7.066;2023-01-19T02:27:21;1.70;99.90
24162;DHT22;12318;51.262;7.066;2023-01-19T02:29:46;1.60;99.90
24162;DHT22;12318;51.262;7.066;2023-01-19T02:32:16;1.60;99.90
24162;DHT22;12318;51.262;7.066;2023-01-19T02:34:41;1.60;99.90
24162;DHT22;12318;51.262;7.066;2023-01-19T02:37:11;1.60;99.90
24162;DHT22;12318;51.262;7.066;2023-01-19T02:45:27;1.70;99.90
24162;DHT22;12318;51.262;7.066;2023-01-19T02:47:53;1.70;99.90
24162;DHT22;12318;51.262;7.066;2023-01-19T02:55:54;1.70;99.90
24162;DHT22;12318;51.262;7.066;2023-01-19T03:09:34;1.80;99.90
24162;DHT22;12318;51.262;7.066;2023-01-19T03:12:10;1.80;99.90
24162;DHT22;12318;51.262;7.066;2023-01-19T03:14:42;1.70;99.90
24162;DHT22;12318;51.262;7.066;2023-01-19T03:17:11;1.70;99.90
24162;DHT22;12318;51.262;7.066;2023-01-19T03:19:41;1.80;99.90
24162;DHT22;12318;51.262;7.066;2023-01-19T03:22:37;1.70;99.90
24162;DHT22;12318;51.262;7.066;2023-01-19T03:25:03;1.70;99.90
24162;DHT22;12318;51.262;7.066;2023-01-19T03:27:35;1.70;99.90
24162;DHT22;12318;51.262;7.066;2023-01-19T03:30:11;1.70;99.90
24162;DHT22;12318;51.262;7.066;2023-01-19T03:32:56;1.60;99.90
24162;DHT22;12318;51.262;7.066;2023-01-19T03:35:25;1.70;99.90
24162;DHT22;12318;51.262;7.066;2023-01-19T03:37:55;1.70;99.90
24162;DHT22;12318;51.262;7.066;2023-01-19T03:40:28;1.80;99.90
24162;DHT22;12318;51.262;7.066;2023-01-19T03:42:54;1.80;99.90
24162;DHT22;12318;51.262;7.066;2023-01-19T03:45:20;1.70;99.90
24162;DHT22;12318;51.262;7.066;2023-01-19T03:47:47;1.70;99.90
24162;DHT22;12318;51.262;7.066;2023-01-19T03:50:22;1.70;99.90
24162;DHT22;12318;51.262;7.066;2023-01-19T03:53:21;1.80;99.90
24162;DHT22;12318;51.262;7.066;2023-01-19T03:55:49;1.70;99.90
24162;DHT22;12318;51.262;7.066;2023-01-19T03:58:15;1.80;99.90
24162;DHT22;12318;51.262;7.066;2023-01-19T04:04:03;1.80;99.90
24162;DHT22;12318;51.262;7.066;2023-01-19T04:06:29;1.80;99.90
24162;DHT22;12318;51.262;7.066;2023-01-19T04:08:54;1.80;99.90
24162;DHT22;12318;51.262;7.066;2023-01-19T04:11:58;1.80;99.90
24162;DHT22;12318;51.262;7.066;2023-01-19T04:14:25;1.70;99.90
24162;DHT22;12318;51.262;7.066;2023-01-19T04:16:51;1.80;99.90
24162;DHT22;12318;51.262;7.066;2023-01-19T04:19:17;1.70;99.90
24162;DHT22;12318;51.262;7.066;2023-01-19T04:21:44;1.80;99.90
24162;DHT22;12318;51.262;7.066;2023-01-19T04:24:12;1.70;99.90
24162;DHT22;12318;51.262;7.066;2023-01-19T04:26:37;1.70;99.90
24162;DHT22;12318;51.262;7.066;2023-01-19T04:29:03;1.80;99.90
24162;DHT22;12318;51.262;7.066;2023-01-19T04:31:30;1.90;99.90
24162;DHT22;12318;51.262;7.066;2023-01-19T04:33:56;1.70;99.90
24162;DHT22;12318;51.262;7.066;2023-01-19T04:36:21;1.70;99.90
24162;DHT22;12318;51.262;7.066;2023-01-19T04:38:47;1.60;99.90
24162;DHT22;12318;51.262;7.066;2023-01-19T04:41:48;1.50;99.90
24162;DHT22;12318;51.262;7.066;2023-01-19T04:44:16;1.40;99.90
24162;DHT22;12318;51.262;7.066;2023-01-19T04:46:42;1.50;99.90
24162;DHT22;12318;51.262;7.066;2023-01-19T04:49:08;1.40;99.90
24162;DHT22;12318;51.262;7.066;2023-01-19T04:51:45;1.50;99.90
24162;DHT22;12318;51.262;7.066;2023-01-19T04:54:11;1.40;99.90
24162;DHT22;12318;51.262;7.066;2023-01-19T04:56:36;1.50;99.90
24162;DHT22;12318;51.262;7.066;2023-01-19T04:59:02;1.40;99.90
24162;DHT22;12318;51.262;7.066;2023-01-19T05:01:28;1.40;99.90
24162;DHT22;12318;51.262;7.066;2023-01-19T05:03:57;1.40;99.90
24162;DHT22;12318;51.262;7.066;2023-01-19T05:06:22;1.50;99.90
24162;DHT22;12318;51.262;7.066;2023-01-19T05:08:48;1.50;99.90
24162;DHT22;12318;51.262;7.066;2023-01-19T05:11:14;1.50;99.90
24162;DHT22;12318;51.262;7.066;2023-01-19T05:13:40;1.40;99.90
24162;DHT22;12318;51.262;7.066;2023-01-19T05:16:06;1.40;99.90
24162;DHT22;12318;51.262;7.066;2023-01-19T05:18:31;1.40;99.90
24162;DHT22;12318;51.262;7.066;2023-01-19T05:21:13;1.40;99.90
24162;DHT22;12318;51.262;7.066;2023-01-19T05:23:38;1.50;99.90
24162;DHT22;12318;51.262;7.066;2023-01-19T05:26:05;1.40;99.90
24162;DHT22;12318;51.262;7.066;2023-01-19T05:28:32;1.50;99.90
24162;DHT22;12318;51.262;7.066;2023-01-19T05:30:59;1.50;99.90
24162;DHT22;12318;51.262;7.066;2023-01-19T05:33:25;1.50;99.90
24162;DHT22;12318;51.262;7.066;2023-01-19T05:35:52;1.50;99.90
24162;DHT22;12318;51.262;7.066;2023-01-19T05:38:19;1.50;99.90
24162;DHT22;12318;51.262;7.066;2023-01-19T05:41:08;1.60;99.90
24162;DHT22;12318;51.262;7.066;2023-01-19T05:43:34;1.60;99.90
24162;DHT22;12318;51.262;7.066;2023-01-19T05:46:01;1.60;99.90
24162;DHT22;12318;51.262;7.066;2023-01-19T05:48:28;1.70;99.90
24162;DHT22;12318;51.262;7.066;2023-01-19T05:50:58;1.70;99.90
24162;DHT22;12318;51.262;7.066;2023-01-19T05:53:24;1.70;99.90
24162;DHT22;12318;51.262;7.066;2023-01-19T05:55:50;1.70;99.90
24162;DHT22;12318;51.262;7.066;2023-01-19T05:58:15;1.70;99.90
24162;DHT22;12318;51.262;7.066;2023-01-19T06:01:05;1.60;99.90
24162;DHT22;12318;51.262;7.066;2023-01-19T06:03:33;1.60;99.90
24162;DHT22;12318;51.262;7.066;2023-01-19T06:05:59;1.70;99.90
24162;DHT22;12318;51.262;7.066;2023-01-19T06:08:26;1.70;99.90
24162;DHT22;12318;51.262;7.066;2023-01-19T06:10:57;1.70;99.90
24162;DHT22;12318;51.262;7.066;2023-01-19T06:13:23;1.70;99.90
24162;DHT22;12318;51.262;7.066;2023-01-19T06:15:58;1.70;99.90
24162;DHT22;12318;51.262;7.066;2023-01-19T06:18:24;1.70;99.90
24162;DHT22;12318;51.262;7.066;2023-01-19T06:20:50;1.80;99.90
24162;DHT22;12318;51.262;7.066;2023-01-19T06:23:17;1.70;99.90
24162;DHT22;12318;51.262;7.066;2023-01-19T06:25:42;1.80;99.90
24162;DHT22;12318;51.262;7.066;2023-01-19T06:28:08;1.70;99.90
24162;DHT22;12318;51.262;7.066;2023-01-19T06:30:38;1.70;99.90
24162;DHT22;12318;51.262;7.066;2023-01-19T06:33:04;1.70;99.90
24162;DHT22;12318;51.262;7.066;2023-01-19T06:35:30;1.70;99.90
24162;DHT22;12318;51.262;7.066;2023-01-19T06:37:56;1.70;99.90
24162;DHT22;12318;51.262;7.066;2023-01-19T06:40:25;1.70;99.90
24162;DHT22;12318;51.262;7.066;2023-01-19T06:43:02;1.70;99.90
24162;DHT22;12318;51.262;7.066;2023-01-19T06:45:28;1.70;99.90
24162;DHT22;12318;51.262;7.066;2023-01-19T06:47:53;1.70;99.90
24162;DHT22;12318;51.262;7.066;2023-01-19T06:50:19;1.70;99.90
24162;DHT22;12318;51.262;7.066;2023-01-19T06:53:02;1.90;99.90
24162;DHT22;12318;51.262;7.066;2023-01-19T06:55:30;1.80;99.90
24162;DHT22;12318;51.262;7.066;2023-01-19T06:57:57;1.80;99.90
24162;DHT22;12318;51.262;7.066;2023-01-19T07:00:26;1.90;99.90
24162;DHT22;12318;51.262;7.066;2023-01-19T07:03:05;1.90;99.90
24162;DHT22;12318;51.262;7.066;2023-01-19T07:05:34;1.90;99.90
24162;DHT22;12318;51.262;7.066;2023-01-19T07:08:03;1.90;99.90
24162;DHT22;12318;51.262;7.066;2023-01-19T07:10:28;1.90;99.90
24162;DHT22;12318;51.262;7.066;2023-01-19T07:13:05;1.80;99.90
24162;DHT22;12318;51.262;7.066;2023-01-19T07:15:30;1.80;99.90
24162;DHT22;12318;51.262;7.066;2023-01-19T07:17:57;1.90;99.90
24162;DHT22;12318;51.262;7.066;2023-01-19T07:20:23;2.00;99.90
24162;DHT22;12318;51.262;7.066;2023-01-19T07:22:58;1.90;99.90
24162;DHT22;12318;51.262;7.066;2023-01-19T07:25:24;2.00;99.90
24162;DHT22;12318;51.262;7.066;2023-01-19T07:27:51;2.00;99.90
24162;DHT22;12318;51.262;7.066;2023-01-19T07:30:20;2.00;99.90
24162;DHT22;12318;51.262;7.066;2023-01-19T07:33:02;2.00;99.90
24162;DHT22;12318;51.262;7.066;2023-01-19T07:35:28;1.90;99.90
24162;DHT22;12318;51.262;7.066;2023-01-19T07:37:54;1.90;99.90
24162;DHT22;12318;51.262;7.066;2023-01-19T07:40:20;1.90;99.90
24162;DHT22;12318;51.262;7.066;2023-01-19T07:43:01;2.00;99.90
24162;DHT22;12318;51.262;7.066;2023-01-19T07:45:27;1.90;99.90
24162;DHT22;12318;51.262;7.066;2023-01-19T07:47:53;1.90;99.90
24162;DHT22;12318;51.262;7.066;2023-01-19T07:50:18;1.90;99.90
24162;DHT22;12318;51.262;7.066;2023-01-19T07:53:20;2.00;99.90
24162;DHT22;12318;51.262;7.066;2023-01-19T07:55:53;2.00;99.90
24162;DHT22;12318;51.262;7.066;2023-01-19T07:58:19;2.00;99.90
24162;DHT22;12318;51.262;7.066;2023-01-19T08:03:49;2.00;99.90
24162;DHT22;12318;51.262;7.066;2023-01-19T08:06:20;2.10;99.90
24162;DHT22;12318;51.262;7.066;2023-01-19T08:08:46;2.00;99.90
24162;DHT22;12318;51.262;7.066;2023-01-19T08:11:15;2.00;99.90
24162;DHT22;12318;51.262;7.066;2023-01-19T08:13:41;2.00;99.90
24162;DHT22;12318;51.262;7.066;2023-01-19T08:16:10;2.10;99.90
24162;DHT22;12318;51.262;7.066;2023-01-19T08:18:35;2.10;99.90
24162;DHT22;12318;51.262;7.066;2023-01-19T08:21:09;2.10;99.90
24162;DHT22;12318;51.262;7.066;2023-01-19T08:23:34;2.10;99.90
24162;DHT22;12318;51.262;7.066;2023-01-19T08:26:00;2.10;99.90
24162;DHT22;12318;51.262;7.066;2023-01-19T08:28:26;2.20;99.90
24162;DHT22;12318;51.262;7.066;2023-01-19T08:31:23;2.10;99.90
24162;DHT22;12318;51.262;7.066;2023-01-19T08:33:49;2.20;99.90
24162;DHT22;12318;51.262;7.066;2023-01-19T08:36:15;2.20;99.90
24162;DHT22;12318;51.262;7.066;2023-01-19T08:38:42;2.30;99.90
24162;DHT22;12318;51.262;7.066;2023-01-19T08:41:13;2.30;99.90
24162;DHT22;12318;51.262;7.066;2023-01-19T08:43:40;2.20;99.90
24162;DHT22;12318;51.262;7.066;2023-01-19T08:46:06;2.30;99.90
24162;DHT22;12318;51.262;7.066;2023-01-19T08:48:32;2.30;99.90
24162;DHT22;12318;51.262;7.066;2023-01-19T08:51:00;2.30;99.90
24162;DHT22;12318;51.262;7.066;2023-01-19T08:53:25;2.30;99.90
24162;DHT22;12318;51.262;7.066;2023-01-19T08:56:27;2.40;99.90
24162;DHT22;12318;51.262;7.066;2023-01-19T08:58:53;2.30;99.90
24162;DHT22;12318;51.262;7.066;2023-01-19T09:01:20;2.20;99.90
24162;DHT22;12318;51.262;7.066;2023-01-19T09:03:46;2.30;99.90
24162;DHT22;12318;51.262;7.066;2023-01-19T09:06:14;2.30;99.90
24162;DHT22;12318;51.262;7.066;2023-01-19T09:08:42;2.30;99.90
24162;DHT22;12318;51.262;7.066;2023-01-19T09:11:14;2.30;99.90
24162;DHT22;12318;51.262;7.066;2023-01-19T09:13:41;2.30;99.90
24162;DHT22;12318;51.262;7.066;2023-01-19T09:16:08;2.40;99.90
24162;DHT22;12318;51.262;7.066;2023-01-19T09:18:36;2.50;99.90
24162;DHT22;12318;51.262;7.066;2023-01-19T09:21:10;2.40;99.90
24162;DHT22;12318;51.262;7.066;2023-01-19T09:23:36;2.40;99.90
24162;DHT22;12318;51.262;7.066;2023-01-19T09:26:04;2.40;99.90
24162;DHT22;12318;51.262;7.066;2023-01-19T09:28:30;2.30;99.90
24162;DHT22;12318;51.262;7.066;2023-01-19T09:31:07;2.30;99.90
24162;DHT22;12318;51.262;7.066;2023-01-19T09:33:34;2.40;99.90
24162;DHT22;12318;51.262;7.066;2023-01-19T09:36:02;2.40;99.90
24162;DHT22;12318;51.262;7.066;2023-01-19T09:38:42;2.50;99.90
24162;DHT22;12318;51.262;7.066;2023-01-19T09:41:25;2.50;99.90
24162;DHT22;12318;51.262;7.066;2023-01-19T09:43:59;2.50;99.90
24162;DHT22;12318;51.262;7.066;2023-01-19T09:46:37;2.50;99.90
24162;DHT22;12318;51.262;7.066;2023-01-19T09:52:33;2.50;99.90
24162;DHT22;12318;51.262;7.066;2023-01-19T09:55:00;2.50;99.90
24162;DHT22;12318;51.262;7.066;2023-01-19T09:57:26;2.50;99.90
24162;DHT22;12318;51.262;7.066;2023-01-19T09:59:54;2.50;99.90
24162;DHT22;12318;51.262;7.066;2023-01-19T10:14:11;2.40;99.90
24162;DHT22;12318;51.262;7.066;2023-01-19T10:16:51;2.40;99.90
24162;DHT22;12318;51.262;7.066;2023-01-19T10:19:20;2.50;99.90
24162;DHT22;12318;51.262;7.066;2023-01-19T10:21:54;2.50;99.90
24162;DHT22;12318;51.262;7.066;2023-01-19T10:26:55;2.50;99.90
24162;DHT22;12318;51.262;7.066;2023-01-19T10:29:30;2.50;99.90
24162;DHT22;12318;51.262;7.066;2023-01-19T10:32:13;2.50;99.90
24162;DHT22;12318;51.262;7.066;2023-01-19T10:34:52;2.50;99.90
24162;DHT22;12318;51.262;7.066;2023-01-19T10:42:47;2.50;99.90
24162;DHT22;12318;51.262;7.066;2023-01-19T10:45:26;2.50;99.90
24162;DHT22;12318;51.262;7.066;2023-01-19T10:48:35;2.40;99.90
24162;DHT22;12318;51.262;7.066;2023-01-19T10:51:06;2.40;99.90
24162;DHT22;12318;51.262;7.066;2023-01-19T10:53:42;2.40;99.90
24162;DHT22;12318;51.262;7.066;2023-01-19T10:59:48;2.50;99.90
24162;DHT22;12318;51.262;7.066;2023-01-19T11:09:37;2.50;99.90
24162;DHT22;12318;51.262;7.066;2023-01-19T11:18:56;2.60;99.90
24162;DHT22;12318;51.262;7.066;2023-01-19T11:24:38;2.60;99.90
24162;DHT22;12318;51.262;7.066;2023-01-19T11:27:15;2.70;99.90
24162;DHT22;12318;51.262;7.066;2023-01-19T11:30:52;2.80;99.90
24162;DHT22;12318;51.262;7.066;2023-01-19T11:32:47;2.90;99.90
24162;DHT22;12318;51.262;7.066;2023-01-19T11:35:42;2.80;99.90
24162;DHT22;12318;51.262;7.066;2023-01-19T11:40:41;2.90;99.90
24162;DHT22;12318;51.262;7.066;2023-01-19T11:43:14;2.80;99.90
24162;DHT22;12318;51.262;7.066;2023-01-19T11:46:03;2.80;99.90
24162;DHT22;12318;51.262;7.066;2023-01-19T11:48:41;2.80;99.90
24162;DHT22;12318;51.262;7.066;2023-01-19T11:51:15;2.80;99.90
24162;DHT22;12318;51.262;7.066;2023-01-19T11:53:51;2.80;99.90
24162;DHT22;12318;51.262;7.066;2023-01-19T11:56:21;2.90;99.90
24162;DHT22;12318;51.262;7.066;2023-01-19T11:58:51;3.00;99.90
24162;DHT22;12318;51.262;7.066;2023-01-19T12:01:35;3.00;99.90
24162;DHT22;12318;51.262;7.066;2023-01-19T12:04:26;3.00;99.90
24162;DHT22;12318;51.262;7.066;2023-01-19T12:07:03;3.00;99.90
24162;DHT22;12318;51.262;7.066;2023-01-19T12:09:39;2.90;99.90
24162;DHT22;12318;51.262;7.066;2023-01-19T12:12:19;3.00;99.90
24162;DHT22;12318;51.262;7.066;2023-01-19T12:15:00;3.00;99.90
24162;DHT22;12318;51.262;7.066;2023-01-19T12:17:39;3.00;99.90
24162;DHT22;12318;51.262;7.066;2023-01-19T12:26:05;2.90;99.90
24162;DHT22;12318;51.262;7.066;2023-01-19T12:28:39;2.90;99.90
24162;DHT22;12318;51.262;7.066;2023-01-19T12:31:11;2.90;99.90
24162;DHT22;12318;51.262;7.066;2023-01-19T12:33:39;3.00;99.90
24162;DHT22;12318;51.262;7.066;2023-01-19T12:36:39;3.00;99.90
24162;DHT22;12318;51.262;7.066;2023-01-19T12:39:21;3.10;99.90
24162;DHT22;12318;51.262;7.066;2023-01-19T12:41:48;3.10;99.90
24162;DHT22;12318;51.262;7.066;2023-01-19T12:44:28;3.00;99.90
24162;DHT22;12318;51.262;7.066;2023-01-19T12:47:17;3.00;99.90
24162;DHT22;12318;51.262;7.066;2023-01-19T12:49:56;2.90;99.90
24162;DHT22;12318;51.262;7.066;2023-01-19T12:52:57;2.90;99.90
24162;DHT22;12318;51.262;7.066;2023-01-19T12:55:42;2.70;99.90
24162;DHT22;12318;51.262;7.066;2023-01-19T12:58:22;2.80;99.90
24162;DHT22;12318;51.262;7.066;2023-01-19T13:00:50;2.70;99.90
24162;DHT22;12318;51.262;7.066;2023-01-19T13:03:59;2.80;99.90
24162;DHT22;12318;51.262;7.066;2023-01-19T13:14:46;3.20;99.90
24162;DHT22;12318;51.262;7.066;2023-01-19T13:17:46;3.30;99.90
24162;DHT22;12318;51.262;7.066;2023-01-19T13:20:29;3.20;99.90
24162;DHT22;12318;51.262;7.066;2023-01-19T13:26:03;3.20;99.90
24162;DHT22;12318;51.262;7.066;2023-01-19T13:28:42;3.20;99.90
24162;DHT22;12318;51.262;7.066;2023-01-19T13:31:12;3.20;99.90
24162;DHT22;12318;51.262;7.066;2023-01-19T13:36:43;3.20;99.90
24162;DHT22;12318;51.262;7.066;2023-01-19T13:42:03;3.20;99.90
24162;DHT22;12318;51.262;7.066;2023-01-19T13:44:41;3.10;99.90
24162;DHT22;12318;51.262;7.066;2023-01-19T13:47:28;3.20;99.90
24162;DHT22;12318;51.262;7.066;2023-01-19T13:50:01;3.30;99.90
24162;DHT22;12318;51.262;7.066;2023-01-19T13:52:30;3.10;99.90
24162;DHT22;12318;51.262;7.066;2023-01-19T13:55:19;3.10;99.90
24162;DHT22;12318;51.262;7.066;2023-01-19T13:57:56;3.20;99.90
24162;DHT22;12318;51.262;7.066;2023-01-19T14:00:29;3.20;99.90
24162;DHT22;12318;51.262;7.066;2023-01-19T14:03:07;3.20;99.90
24162;DHT22;12318;51.262;7.066;2023-01-19T14:05:48;3.30;99.90
24162;DHT22;12318;51.262;7.066;2023-01-19T14:08:20;3.30;99.90
24162;DHT22;12318;51.262;7.066;2023-01-19T14:11:02;3.20;99.90
24162;DHT22;12318;51.262;7.066;2023-01-19T14:13:43;3.20;99.90
24162;DHT22;12318;51.262;7.066;2023-01-19T14:16:18;3.20;99.90
24162;DHT22;12318;51.262;7.066;2023-01-19T14:19:08;3.20;99.90
24162;DHT22;12318;51.262;7.066;2023-01-19T14:22:08;3.10;99.90
24162;DHT22;12318;51.262;7.066;2023-01-19T14:24:41;3.20;99.90
24162;DHT22;12318;51.262;7.066;2023-01-19T14:27:23;3.20;99.90
24162;DHT22;12318;51.262;7.066;2023-01-19T14:30:21;3.20;99.90
24162;DHT22;12318;51.262;7.066;2023-01-19T14:32:54;3.20;99.90
24162;DHT22;12318;51.262;7.066;2023-01-19T14:35:36;3.20;99.90
24162;DHT22;12318;51.262;7.066;2023-01-19T14:38:13;3.30;99.90
24162;DHT22;12318;51.262;7.066;2023-01-19T14:43:44;3.20;99.90
24162;DHT22;12318;51.262;7.066;2023-01-19T14:46:26;3.20;99.90
24162;DHT22;12318;51.262;7.066;2023-01-19T14:49:14;3.10;99.90
24162;DHT22;12318;51.262;7.066;2023-01-19T14:52:23;3.20;99.90
24162;DHT22;12318;51.262;7.066;2023-01-19T14:54:53;3.30;99.90
24162;DHT22;12318;51.262;7.066;2023-01-19T14:57:19;3.20;99.90
24162;DHT22;12318;51.262;7.066;2023-01-19T14:59:54;3.10;99.90
24162;DHT22;12318;51.262;7.066;2023-01-19T15:02:27;3.20;99.90
24162;DHT22;12318;51.262;7.066;2023-01-19T15:05:02;3.10;99.90
24162;DHT22;12318;51.262;7.066;2023-01-19T15:07:38;3.10;99.90
24162;DHT22;12318;51.262;7.066;2023-01-19T15:13:26;3.10;99.90
24162;DHT22;12318;51.262;7.066;2023-01-19T15:15:59;3.20;99.90
24162;DHT22;12318;51.262;7.066;2023-01-19T15:18:39;3.20;99.90
24162;DHT22;12318;51.262;7.066;2023-01-19T15:21:25;3.20;99.90
24162;DHT22;12318;51.262;7.066;2023-01-19T15:24:14;3.00;99.90
24162;DHT22;12318;51.262;7.066;2023-01-19T15:27:12;3.10;99.90
24162;DHT22;12318;51.262;7.066;2023-01-19T15:29:43;3.00;99.90
24162;DHT22;12318;51.262;7.066;2023-01-19T15:32:18;2.90;99.90
24162;DHT22;12318;51.262;7.066;2023-01-19T15:34:44;2.90;99.90
24162;DHT22;12318;51.262;7.066;2023-01-19T15:40:41;2.90;99.90
24162;DHT22;12318;51.262;7.066;2023-01-19T15:43:18;2.80;99.90
24162;DHT22;12318;51.262;7.066;2023-01-19T15:46:01;2.80;99.90
24162;DHT22;12318;51.262;7.066;2023-01-19T15:48:32;2.70;99.90
24162;DHT22;12318;51.262;7.066;2023-01-19T15:51:00;2.70;99.90
24162;DHT22;12318;51.262;7.066;2023-01-19T15:53:37;2.70;99.90
24162;DHT22;12318;51.262;7.066;2023-01-19T15:56:09;2.70;99.90
24162;DHT22;12318;51.262;7.066;2023-01-19T15:58:39;2.70;99.90
24162;DHT22;12318;51.262;7.066;2023-01-19T16:01:28;2.70;99.90
24162;DHT22;12318;51.262;7.066;2023-01-19T16:04:06;2.60;99.90
24162;DHT22;12318;51.262;7.066;2023-01-19T16:06:38;2.60;99.90
24162;DHT22;12318;51.262;7.066;2023-01-19T16:09:25;2.70;99.90
24162;DHT22;12318;51.262;7.066;2023-01-19T16:12:03;2.70;99.90
24162;DHT22;12318;51.262;7.066;2023-01-19T16:14:29;2.70;99.90
24162;DHT22;12318;51.262;7.066;2023-01-19T16:16:57;2.60;99.90
24162;DHT22;12318;51.262;7.066;2023-01-19T16:19:40;2.60;99.90
24162;DHT22;12318;51.262;7.066;2023-01-19T16:22:14;2.60;99.90
24162;DHT22;12318;51.262;7.066;2023-01-19T16:24:45;2.60;99.90
24162;DHT22;12318;51.262;7.066;2023-01-19T16:27:21;2.60;99.90
24162;DHT22;12318;51.262;7.066;2023-01-19T16:29:47;2.70;99.90
24162;DHT22;12318;51.262;7.066;2023-01-19T16:32:21;2.70;99.90
24162;DHT22;12318;51.262;7.066;2023-01-19T16:34:53;2.80;99.90
24162;DHT22;12318;51.262;7.066;2023-01-19T16:37:35;2.80;99.90
24162;DHT22;12318;51.262;7.066;2023-01-19T16:40:03;2.70;99.90
24162;DHT22;12318;51.262;7.066;2023-01-19T16:42:38;2.70;99.90
24162;DHT22;12318;51.262;7.066;2023-01-19T16:45:08;2.70;99.90
24162;DHT22;12318;51.262;7.066;2023-01-19T16:47:37;2.60;99.90
24162;DHT22;12318;51.262;7.066;2023-01-19T16:50:11;2.60;99.90
24162;DHT22;12318;51.262;7.066;2023-01-19T16:52:37;2.50;99.90
24162;DHT22;12318;51.262;7.066;2023-01-19T16:55:14;2.60;99.90
24162;DHT22;12318;51.262;7.066;2023-01-19T16:57:45;2.60;99.90
24162;DHT22;12318;51.262;7.066;2023-01-19T17:00:11;2.70;99.90
24162;DHT22;12318;51.262;7.066;2023-01-19T17:02:39;2.70;99.90
24162;DHT22;12318;51.262;7.066;2023-01-19T17:05:13;2.60;99.90
24162;DHT22;12318;51.262;7.066;2023-01-19T17:07:39;2.70;99.90
24162;DHT22;12318;51.262;7.066;2023-01-19T17:10:08;2.80;99.90
24162;DHT22;12318;51.262;7.066;2023-01-19T17:12:36;2.70;99.90
24162;DHT22;12318;51.262;7.066;2023-01-19T17:15:03;2.60;99.90
24162;DHT22;12318;51.262;7.066;2023-01-19T17:17:31;2.60;99.90
24162;DHT22;12318;51.262;7.066;2023-01-19T17:20:04;2.60;99.90
24162;DHT22;12318;51.262;7.066;2023-01-19T17:22:29;2.60;99.90
24162;DHT22;12318;51.262;7.066;2023-01-19T17:25:03;2.70;99.90
24162;DHT22;12318;51.262;7.066;2023-01-19T17:27:34;2.60;99.90
24162;DHT22;12318;51.262;7.066;2023-01-19T17:30:02;2.60;99.90
24162;DHT22;12318;51.262;7.066;2023-01-19T17:32:51;2.60;99.90
24162;DHT22;12318;51.262;7.066;2023-01-19T17:35:17;2.60;99.90
24162;DHT22;12318;51.262;7.066;2023-01-19T17:37:52;2.60;99.90
24162;DHT22;12318;51.262;7.066;2023-01-19T17:40:20;2.60;99.90
24162;DHT22;12318;51.262;7.066;2023-01-19T17:42:46;2.60;99.90
24162;DHT22;12318;51.262;7.066;2023-01-19T17:45:15;2.50;99.90
24162;DHT22;12318;51.262;7.066;2023-01-19T17:47:41;2.50;99.90
24162;DHT22;12318;51.262;7.066;2023-01-19T17:50:07;2.30;99.90
24162;DHT22;12318;51.262;7.066;2023-01-19T17:52:35;2.30;99.90
24162;DHT22;12318;51.262;7.066;2023-01-19T17:55:02;2.30;99.90
24162;DHT22;12318;51.262;7.066;2023-01-19T17:57:28;2.20;99.90
24162;DHT22;12318;51.262;7.066;2023-01-19T18:00:02;2.30;99.90
24162;DHT22;12318;51.262;7.066;2023-01-19T18:02:30;2.40;99.90
24162;DHT22;12318;51.262;7.066;2023-01-19T18:05:22;2.30;99.90
24162;DHT22;12318;51.262;7.066;2023-01-19T18:07:53;2.30;99.90
24162;DHT22;12318;51.262;7.066;2023-01-19T18:10:29;2.30;99.90
24162;DHT22;12318;51.262;7.066;2023-01-19T18:12:55;2.20;99.90